METAR stanice u blizini

 

LYBE - Beograd / Surčin, Srbija
Ažurirano: 29/03/2020 04:30
Vedro
Vedro
 Pravac vetra JJZ
Vetar: JJZ 9 km/h
Temperatura: 7°C
Osećaj hladnoće: 6°C
Tačka rose: 2°C
Vlažnost: 71%
Pritisak: 1012 hPa
Pregled: Vedro
Vidljivost: greater than 10 km
2020/03/29 02:30 LYBE 290230Z 20005KT CAVOK 07/02 Q1012 NOSIG
LYBT - Beograd / Batajnica, Srbija
Ažurirano: 29/03/2020 04:30
Vedro
Vedro
 Pravac vetra J
Vetar: J 7 km/h
Temperatura: 4°C
Osećaj hladnoće: 2°C
Tačka rose: 2°C
Vlažnost: 87%
Pritisak: 1011 hPa
Pregled: Vedro
Vidljivost: greater than 10 km
2020/03/29 02:30 LYBT 290230Z 18004KT CAVOK 04/02 Q1011 NOSIG
LYVR - Vršac, Srbija
Ažurirano: 29/03/2020 04:30
Vedro
Vedro
 Pravac vetra JJZ
Vetar: JJZ 6 km/h
Temperatura: 8°C
Tačka rose: 4°C
Vlažnost: 76%
Pritisak: 1011 hPa
Pregled: Vedro
Vidljivost: greater than 10 km
2020/03/29 02:30 LYVR 290230Z AUTO 20003KT CAVOK 08/04 Q1011
 
LYKV - Lađevci, Srbija
Ažurirano: 29/03/2020 04:30
Vedro
Vedro
 Pravac vetra I
Vetar: I 2 km/h
Temperatura: 1°C
Tačka rose: 1°C
Vlažnost: 100%
Pritisak: 1013 hPa
Pregled: Vedro
Vidljivost: greater than 10 km
2020/03/29 02:30 LYKV 290230Z 09001KT CAVOK 01/01 Q1013 NOSIG
LYNI - Niš, Srbija
Ažurirano: 29/03/2020 04:30
Vedro
Vedro
 Pravac vetra varies
Vetar: varies 4 km/h
Temperatura: 3°C
Tačka rose: -1°C
Vlažnost: 75%
Pritisak: 1012 hPa
Pregled: Vedro
Vidljivost: greater than 10 km
2020/03/29 02:30 LYNI 290230Z VRB02KT CAVOK 03/M01 Q1012 NOSIG
BKPR - Priština, Srbija
Ažurirano: 29/03/2020 04:30
Few Clouds
Few Clouds
 Pravac vetra calm
Vetar: Tišina
Temperatura: 2°C
Tačka rose: -2°C
Vlažnost: 75%
Pritisak: 1012 hPa
Oblaci: Few Clouds
Vidljivost: 10 km
Cloud details: Few Clouds 2743 m
2020/03/29 02:30 BKPR 290230Z 00000KT 9999 FEW090 02/M02 Q1012 NOSIG RMK 17010095
 
LHPP - Pecs / Pogany, Hungary
Ažurirano: 28/03/2020 18:45
NOT Current
Vedro
Vedro
 Pravac vetra JZ
Vetar: JZ 7 km/h
Temperatura: 14°C
Tačka rose: 3°C
Vlažnost: 48%
Pritisak: 1012 hPa
Pregled: Vedro
Vidljivost: greater than 10 km
2020/03/28 17:45 LHPP 281745Z 23004KT CAVOK 14/03 Q1012
LHUD - Szeged, Hungary
Ažurirano: 04/07/2019 01:45
NOT Current
Vedro
Vedro
 Pravac vetra S
Vetar: S 7 km/h
Temperatura: 18°C
Tačka rose: 13°C
Vlažnost: 73%
Pritisak: 1019 hPa
Pregled: Vedro
Vidljivost: greater than 10 km
2019/07/03 23:45 LHUD 032345Z 35004KT CAVOK 18/13 Q1019
LRTR - Timisoara, Romania
Ažurirano: 29/03/2020 04:30
Vedro
Vedro
 Pravac vetra I
Vetar: I 11 km/h
Temperatura: 1°C
Osećaj hladnoće: -2°C
Tačka rose: 0°C
Vlažnost: 93%
Pritisak: 1010 hPa
Pregled: Vedro
Vidljivost: greater than 10 km
2020/03/29 02:30 LRTR 290230Z 10006KT CAVOK 01/00 Q1010
 
LRCV - Craiova, Romania
Ažurirano: 29/03/2020 04:30
Vedro
Vedro
 Pravac vetra Z
Vetar: Z 6 km/h
Temperatura: 4°C
Tačka rose: 1°C
Vlažnost: 81%
Pritisak: 1009 hPa
Pregled: Vedro
Vidljivost: greater than 10 km
2020/03/29 02:30 LRCV 290230Z 28003KT CAVOK 04/01 Q1009
LBSF - Sofia, Bulgaria
Ažurirano: 29/03/2020 04:30
Vedro
Vedro
 Pravac vetra SSZ
Vetar: SSZ 6 km/h
Temperatura: 1°C
Tačka rose: -1°C
Vlažnost: 87%
Pritisak: 1011 hPa
Pregled: Vedro
Vidljivost: greater than 10 km
2020/03/29 02:30 LBSF 290230Z 33003KT CAVOK 01/M01 Q1011 NOSIG
LWSK - Skoplje, Makedonija
Ažurirano: 29/03/2020 04:30
Patches of fog, Pretežno oblačno
Patches of fog, Pretežno oblačno
 Pravac vetra J
Vetar: J 4 km/h
Temperatura: 5°C
Tačka rose: 5°C
Vlažnost: 100%
Pritisak: 1012 hPa
Pregled: Patches of Fog
Oblaci: Mostly Cloudy
Vidljivost: 2 km
Cloud details: Mostly Cloudy 61 m
2020/03/29 02:30 LWSK 290230Z 18002KT 2000 0700S BCFG BKN002 05/05 Q1012 NOSIG
 
LYPG - Podgorica, Crna Gora
Ažurirano: 29/03/2020 04:30
Partly Cloudy
Partly Cloudy
 Pravac vetra varies
Vetar: varies 2 km/h
Temperatura: 9°C
Tačka rose: 8°C
Vlažnost: 94%
Pritisak: 1012 hPa
Oblaci: Partly Cloudy
Vidljivost: 10 km
Cloud details: Partly Cloudy 2438 m
2020/03/29 02:30 LYPG 290230Z VRB01KT 9999 SCT080 09/08 Q1012 NOSIG
LQSA - Sarajevo, Bosna i Hercegovina
Ažurirano: 28/03/2020 16:00
NOT Current
Partly Cloudy
Partly Cloudy
 Pravac vetra S
Vetar: S 11 km/h
Temperatura: 15°C
Tačka rose: 0°C
Vlažnost: 36%
Pritisak: 1011 hPa
Oblaci: Partly Cloudy
Vidljivost: 10 km
Cloud details: Partly Cloudy 1829 m
2020/03/28 15:00 LQSA 281500Z 36006KT 320V040 9999 SCT060 15/M00 Q1011
LDOS - Osijek, Hrvatksa
Ažurirano: 29/03/2020 04:30
Vedro
Vedro
 Pravac vetra ZJZ
Vetar: ZJZ 7 km/h
Temperatura: 4°C
Osećaj hladnoće: 2°C
Tačka rose: 2°C
Vlažnost: 87%
Pritisak: 1012 hPa
Pregled: Vedro
Vidljivost: greater than 10 km
2020/03/29 02:30 LDOS 290230Z 25004KT CAVOK 04/02 Q1012